sensor_id;sensor_type;location;lat;lon;timestamp;temperature;humidity
65692;DHT22;52411;52.716;6.696;2023-10-13T00:02:05;16.80;99.90
65692;DHT22;52411;52.716;6.696;2023-10-13T00:04:32;16.80;99.90
65692;DHT22;52411;52.716;6.696;2023-10-13T00:07:01;16.80;99.90
65692;DHT22;52411;52.716;6.696;2023-10-13T00:09:28;16.80;99.90
65692;DHT22;52411;52.716;6.696;2023-10-13T00:12:03;16.80;99.90
65692;DHT22;52411;52.716;6.696;2023-10-13T00:14:30;16.80;99.90
65692;DHT22;52411;52.716;6.696;2023-10-13T00:17:03;16.80;99.90
65692;DHT22;52411;52.716;6.696;2023-10-13T00:19:34;16.90;99.90
65692;DHT22;52411;52.716;6.696;2023-10-13T00:22:09;16.80;99.90
65692;DHT22;52411;52.716;6.696;2023-10-13T00:24:39;16.90;99.90
65692;DHT22;52411;52.716;6.696;2023-10-13T00:27:12;16.90;99.90
65692;DHT22;52411;52.716;6.696;2023-10-13T00:29:56;16.90;99.90
65692;DHT22;52411;52.716;6.696;2023-10-13T00:32:44;16.90;99.90
65692;DHT22;52411;52.716;6.696;2023-10-13T00:35:12;16.80;99.90
65692;DHT22;52411;52.716;6.696;2023-10-13T00:37:40;16.90;99.90
65692;DHT22;52411;52.716;6.696;2023-10-13T00:40:13;16.90;99.90
65692;DHT22;52411;52.716;6.696;2023-10-13T00:43:11;16.90;99.90
65692;DHT22;52411;52.716;6.696;2023-10-13T00:45:59;16.90;99.90
65692;DHT22;52411;52.716;6.696;2023-10-13T00:48:43;16.90;99.90
65692;DHT22;52411;52.716;6.696;2023-10-13T00:51:17;16.90;99.90
65692;DHT22;52411;52.716;6.696;2023-10-13T00:53:47;16.90;99.90
65692;DHT22;52411;52.716;6.696;2023-10-13T00:56:14;16.90;99.90
65692;DHT22;52411;52.716;6.696;2023-10-13T00:58:53;17.00;99.90
65692;DHT22;52411;52.716;6.696;2023-10-13T01:01:22;17.00;99.90
65692;DHT22;52411;52.716;6.696;2023-10-13T01:03:52;16.90;99.90
65692;DHT22;52411;52.716;6.696;2023-10-13T01:06:21;16.90;99.90
65692;DHT22;52411;52.716;6.696;2023-10-13T01:09:00;16.90;99.90
65692;DHT22;52411;52.716;6.696;2023-10-13T01:11:26;17.00;99.90
65692;DHT22;52411;52.716;6.696;2023-10-13T01:13:55;17.00;99.90
65692;DHT22;52411;52.716;6.696;2023-10-13T01:16:20;16.90;99.90
65692;DHT22;52411;52.716;6.696;2023-10-13T01:18:46;16.90;99.90
65692;DHT22;52411;52.716;6.696;2023-10-13T01:21:18;16.90;99.90
65692;DHT22;52411;52.716;6.696;2023-10-13T01:23:52;17.00;99.90
65692;DHT22;52411;52.716;6.696;2023-10-13T01:26:17;17.00;99.90
65692;DHT22;52411;52.716;6.696;2023-10-13T01:28:50;16.90;99.90
65692;DHT22;52411;52.716;6.696;2023-10-13T01:31:16;16.90;99.90
65692;DHT22;52411;52.716;6.696;2023-10-13T01:34:02;16.90;99.90
65692;DHT22;52411;52.716;6.696;2023-10-13T01:36:28;16.90;99.90
65692;DHT22;52411;52.716;6.696;2023-10-13T01:39:00;16.90;99.90
65692;DHT22;52411;52.716;6.696;2023-10-13T01:41:27;16.90;99.90
65692;DHT22;52411;52.716;6.696;2023-10-13T01:43:52;16.90;99.90
65692;DHT22;52411;52.716;6.696;2023-10-13T01:46:18;16.90;99.90
65692;DHT22;52411;52.716;6.696;2023-10-13T01:48:47;16.90;99.90
65692;DHT22;52411;52.716;6.696;2023-10-13T01:51:13;16.90;99.90
65692;DHT22;52411;52.716;6.696;2023-10-13T01:53:39;16.90;99.90
65692;DHT22;52411;52.716;6.696;2023-10-13T01:56:07;16.90;99.90
65692;DHT22;52411;52.716;6.696;2023-10-13T01:58:39;16.90;99.90
65692;DHT22;52411;52.716;6.696;2023-10-13T02:01:11;16.90;99.90
65692;DHT22;52411;52.716;6.696;2023-10-13T02:03:37;16.90;99.90
65692;DHT22;52411;52.716;6.696;2023-10-13T02:06:13;16.90;99.90
65692;DHT22;52411;52.716;6.696;2023-10-13T02:08:43;16.90;99.90
65692;DHT22;52411;52.716;6.696;2023-10-13T02:11:10;16.90;99.90
65692;DHT22;52411;52.716;6.696;2023-10-13T02:13:35;16.90;99.90
65692;DHT22;52411;52.716;6.696;2023-10-13T02:16:07;16.90;99.90
65692;DHT22;52411;52.716;6.696;2023-10-13T02:18:32;16.90;99.90
65692;DHT22;52411;52.716;6.696;2023-10-13T02:21:21;16.90;99.90
65692;DHT22;52411;52.716;6.696;2023-10-13T02:23:47;16.90;99.90
65692;DHT22;52411;52.716;6.696;2023-10-13T02:26:25;16.90;99.90
65692;DHT22;52411;52.716;6.696;2023-10-13T02:29:01;16.90;99.90
65692;DHT22;52411;52.716;6.696;2023-10-13T02:31:29;16.90;99.90
65692;DHT22;52411;52.716;6.696;2023-10-13T02:33:55;16.90;99.90
65692;DHT22;52411;52.716;6.696;2023-10-13T02:36:21;16.90;99.90
65692;DHT22;52411;52.716;6.696;2023-10-13T02:39:02;16.90;99.90
65692;DHT22;52411;52.716;6.696;2023-10-13T02:41:33;16.90;99.90
65692;DHT22;52411;52.716;6.696;2023-10-13T02:44:01;16.90;99.90
65692;DHT22;52411;52.716;6.696;2023-10-13T02:46:26;16.90;99.90
65692;DHT22;52411;52.716;6.696;2023-10-13T02:48:54;16.90;99.90
65692;DHT22;52411;52.716;6.696;2023-10-13T02:51:22;16.90;99.90
65692;DHT22;52411;52.716;6.696;2023-10-13T02:53:57;16.90;99.90
65692;DHT22;52411;52.716;6.696;2023-10-13T02:56:29;16.90;99.90
65692;DHT22;52411;52.716;6.696;2023-10-13T02:58:55;16.90;99.90
65692;DHT22;52411;52.716;6.696;2023-10-13T03:01:28;16.90;99.90
65692;DHT22;52411;52.716;6.696;2023-10-13T03:03:55;16.90;99.90
65692;DHT22;52411;52.716;6.696;2023-10-13T03:06:22;16.90;99.90
65692;DHT22;52411;52.716;6.696;2023-10-13T03:09:01;16.90;99.90
65692;DHT22;52411;52.716;6.696;2023-10-13T03:11:39;16.90;99.90
65692;DHT22;52411;52.716;6.696;2023-10-13T03:14:09;16.80;99.90
65692;DHT22;52411;52.716;6.696;2023-10-13T03:16:41;16.80;99.90
65692;DHT22;52411;52.716;6.696;2023-10-13T03:19:06;16.80;99.90
65692;DHT22;52411;52.716;6.696;2023-10-13T03:21:35;16.80;99.90
65692;DHT22;52411;52.716;6.696;2023-10-13T03:24:02;16.80;99.90
65692;DHT22;52411;52.716;6.696;2023-10-13T03:26:33;16.90;99.90
65692;DHT22;52411;52.716;6.696;2023-10-13T03:29:01;16.90;99.90
65692;DHT22;52411;52.716;6.696;2023-10-13T03:31:30;16.80;99.90
65692;DHT22;52411;52.716;6.696;2023-10-13T03:33:56;16.80;99.90
65692;DHT22;52411;52.716;6.696;2023-10-13T03:36:26;16.90;99.90
65692;DHT22;52411;52.716;6.696;2023-10-13T03:39:10;16.90;99.90
65692;DHT22;52411;52.716;6.696;2023-10-13T03:41:36;16.90;99.90
65692;DHT22;52411;52.716;6.696;2023-10-13T03:44:04;16.90;99.90
65692;DHT22;52411;52.716;6.696;2023-10-13T03:46:38;16.90;99.90
65692;DHT22;52411;52.716;6.696;2023-10-13T03:49:06;16.90;99.90
65692;DHT22;52411;52.716;6.696;2023-10-13T03:51:38;16.90;99.90
65692;DHT22;52411;52.716;6.696;2023-10-13T03:54:04;16.90;99.90
65692;DHT22;52411;52.716;6.696;2023-10-13T03:56:33;16.80;99.90
65692;DHT22;52411;52.716;6.696;2023-10-13T03:59:05;16.80;99.90
65692;DHT22;52411;52.716;6.696;2023-10-13T04:01:36;16.90;99.90
65692;DHT22;52411;52.716;6.696;2023-10-13T04:04:17;16.90;99.90
65692;DHT22;52411;52.716;6.696;2023-10-13T04:07:15;16.90;99.90
65692;DHT22;52411;52.716;6.696;2023-10-13T04:10:01;16.80;99.90
65692;DHT22;52411;52.716;6.696;2023-10-13T04:12:45;16.80;99.90
65692;DHT22;52411;52.716;6.696;2023-10-13T04:15:37;16.80;99.90
65692;DHT22;52411;52.716;6.696;2023-10-13T04:18:06;16.80;99.90
65692;DHT22;52411;52.716;6.696;2023-10-13T04:20:44;16.70;99.90
65692;DHT22;52411;52.716;6.696;2023-10-13T04:23:12;16.70;99.90
65692;DHT22;52411;52.716;6.696;2023-10-13T04:25:43;16.70;99.90
65692;DHT22;52411;52.716;6.696;2023-10-13T04:28:13;16.70;99.90
65692;DHT22;52411;52.716;6.696;2023-10-13T04:33:23;16.70;99.90
65692;DHT22;52411;52.716;6.696;2023-10-13T04:36:13;16.70;99.90
65692;DHT22;52411;52.716;6.696;2023-10-13T04:38:50;16.70;99.90
65692;DHT22;52411;52.716;6.696;2023-10-13T04:44:17;16.70;99.90
65692;DHT22;52411;52.716;6.696;2023-10-13T04:47:09;16.60;99.90
65692;DHT22;52411;52.716;6.696;2023-10-13T04:49:39;16.60;99.90
65692;DHT22;52411;52.716;6.696;2023-10-13T04:52:05;16.60;99.90
65692;DHT22;52411;52.716;6.696;2023-10-13T04:54:36;16.60;99.90
65692;DHT22;52411;52.716;6.696;2023-10-13T04:57:21;16.70;99.90
65692;DHT22;52411;52.716;6.696;2023-10-13T05:00:06;16.70;99.90
65692;DHT22;52411;52.716;6.696;2023-10-13T05:02:39;16.70;99.90
65692;DHT22;52411;52.716;6.696;2023-10-13T05:05:12;16.60;99.90
65692;DHT22;52411;52.716;6.696;2023-10-13T05:07:45;16.70;99.90
65692;DHT22;52411;52.716;6.696;2023-10-13T05:10:30;16.70;99.90
65692;DHT22;52411;52.716;6.696;2023-10-13T05:13:15;16.70;99.90
65692;DHT22;52411;52.716;6.696;2023-10-13T05:15:59;16.70;99.90
65692;DHT22;52411;52.716;6.696;2023-10-13T05:18:44;16.70;99.90
65692;DHT22;52411;52.716;6.696;2023-10-13T05:21:29;16.70;99.90
65692;DHT22;52411;52.716;6.696;2023-10-13T05:24:13;16.70;99.90
65692;DHT22;52411;52.716;6.696;2023-10-13T05:26:58;16.70;99.90
65692;DHT22;52411;52.716;6.696;2023-10-13T05:29:45;16.70;99.90
65692;DHT22;52411;52.716;6.696;2023-10-13T05:32:29;16.70;99.90
65692;DHT22;52411;52.716;6.696;2023-10-13T05:35:14;16.70;99.90
65692;DHT22;52411;52.716;6.696;2023-10-13T05:37:59;16.70;99.90
65692;DHT22;52411;52.716;6.696;2023-10-13T05:40:52;16.70;99.90
65692;DHT22;52411;52.716;6.696;2023-10-13T05:43:36;16.70;99.90
65692;DHT22;52411;52.716;6.696;2023-10-13T05:46:21;16.70;99.90
65692;DHT22;52411;52.716;6.696;2023-10-13T05:48:53;16.70;99.90
65692;DHT22;52411;52.716;6.696;2023-10-13T05:51:31;16.70;99.90
65692;DHT22;52411;52.716;6.696;2023-10-13T05:53:57;16.60;99.90
65692;DHT22;52411;52.716;6.696;2023-10-13T05:56:45;16.70;99.90
65692;DHT22;52411;52.716;6.696;2023-10-13T05:59:31;16.70;99.90
65692;DHT22;52411;52.716;6.696;2023-10-13T06:02:16;16.70;99.90
65692;DHT22;52411;52.716;6.696;2023-10-13T06:05:04;16.70;99.90
65692;DHT22;52411;52.716;6.696;2023-10-13T06:07:49;16.70;99.90
65692;DHT22;52411;52.716;6.696;2023-10-13T06:10:34;16.70;99.90
65692;DHT22;52411;52.716;6.696;2023-10-13T06:13:18;16.70;99.90
65692;DHT22;52411;52.716;6.696;2023-10-13T06:16:06;16.70;99.90
65692;DHT22;52411;52.716;6.696;2023-10-13T06:18:50;16.70;99.90
65692;DHT22;52411;52.716;6.696;2023-10-13T06:21:34;16.60;99.90
65692;DHT22;52411;52.716;6.696;2023-10-13T06:24:19;16.60;99.90
65692;DHT22;52411;52.716;6.696;2023-10-13T06:27:03;16.60;99.90
65692;DHT22;52411;52.716;6.696;2023-10-13T06:29:47;16.60;99.90
65692;DHT22;52411;52.716;6.696;2023-10-13T06:32:14;16.60;99.90
65692;DHT22;52411;52.716;6.696;2023-10-13T06:34:44;16.70;99.90
65692;DHT22;52411;52.716;6.696;2023-10-13T06:37:15;16.70;99.90
65692;DHT22;52411;52.716;6.696;2023-10-13T06:39:52;16.80;99.90
65692;DHT22;52411;52.716;6.696;2023-10-13T06:42:22;16.80;99.90
65692;DHT22;52411;52.716;6.696;2023-10-13T06:44:50;16.90;99.90
65692;DHT22;52411;52.716;6.696;2023-10-13T06:47:17;16.90;99.90
65692;DHT22;52411;52.716;6.696;2023-10-13T06:49:45;16.90;99.90
65692;DHT22;52411;52.716;6.696;2023-10-13T06:52:14;17.00;99.90
65692;DHT22;52411;52.716;6.696;2023-10-13T06:54:41;17.00;99.90
65692;DHT22;52411;52.716;6.696;2023-10-13T06:57:08;17.00;99.90
65692;DHT22;52411;52.716;6.696;2023-10-13T06:59:36;17.10;99.90
65692;DHT22;52411;52.716;6.696;2023-10-13T07:02:06;17.20;99.90
65692;DHT22;52411;52.716;6.696;2023-10-13T07:04:38;17.20;99.90
65692;DHT22;52411;52.716;6.696;2023-10-13T07:07:05;17.20;99.90
65692;DHT22;52411;52.716;6.696;2023-10-13T07:09:36;17.20;99.90
65692;DHT22;52411;52.716;6.696;2023-10-13T07:12:03;17.30;99.90
65692;DHT22;52411;52.716;6.696;2023-10-13T07:14:30;17.30;99.90
65692;DHT22;52411;52.716;6.696;2023-10-13T07:17:04;17.30;99.90
65692;DHT22;52411;52.716;6.696;2023-10-13T07:19:31;17.40;99.90
65692;DHT22;52411;52.716;6.696;2023-10-13T07:21:58;17.40;99.90
65692;DHT22;52411;52.716;6.696;2023-10-13T07:24:28;17.40;99.90
65692;DHT22;52411;52.716;6.696;2023-10-13T07:27:00;17.50;99.90
65692;DHT22;52411;52.716;6.696;2023-10-13T07:29:30;17.40;99.90
65692;DHT22;52411;52.716;6.696;2023-10-13T07:31:56;17.50;99.90
65692;DHT22;52411;52.716;6.696;2023-10-13T07:34:21;17.50;99.90
65692;DHT22;52411;52.716;6.696;2023-10-13T07:36:52;17.50;99.90
65692;DHT22;52411;52.716;6.696;2023-10-13T07:39:18;17.50;99.90
65692;DHT22;52411;52.716;6.696;2023-10-13T07:41:51;17.50;99.90
65692;DHT22;52411;52.716;6.696;2023-10-13T07:44:29;17.50;99.90
65692;DHT22;52411;52.716;6.696;2023-10-13T07:47:01;17.50;99.90
65692;DHT22;52411;52.716;6.696;2023-10-13T07:49:35;17.50;99.90
65692;DHT22;52411;52.716;6.696;2023-10-13T07:52:06;17.50;99.90
65692;DHT22;52411;52.716;6.696;2023-10-13T07:54:48;17.60;99.90
65692;DHT22;52411;52.716;6.696;2023-10-13T07:57:49;17.50;99.90
65692;DHT22;52411;52.716;6.696;2023-10-13T08:00:22;17.50;99.90
65692;DHT22;52411;52.716;6.696;2023-10-13T08:03:00;17.50;99.90
65692;DHT22;52411;52.716;6.696;2023-10-13T08:05:55;17.50;99.90
65692;DHT22;52411;52.716;6.696;2023-10-13T08:08:33;17.50;99.90
65692;DHT22;52411;52.716;6.696;2023-10-13T08:11:09;17.50;99.90
65692;DHT22;52411;52.716;6.696;2023-10-13T08:13:50;17.50;99.90
65692;DHT22;52411;52.716;6.696;2023-10-13T08:16:23;17.60;99.90
65692;DHT22;52411;52.716;6.696;2023-10-13T08:18:52;17.60;99.90
65692;DHT22;52411;52.716;6.696;2023-10-13T08:21:18;17.60;99.90
65692;DHT22;52411;52.716;6.696;2023-10-13T08:23:51;17.60;99.90
65692;DHT22;52411;52.716;6.696;2023-10-13T08:26:23;17.70;99.90
65692;DHT22;52411;52.716;6.696;2023-10-13T08:28:58;17.60;99.90
65692;DHT22;52411;52.716;6.696;2023-10-13T08:31:51;17.60;99.90
65692;DHT22;52411;52.716;6.696;2023-10-13T08:34:30;17.60;99.90
65692;DHT22;52411;52.716;6.696;2023-10-13T08:37:05;17.80;99.90
65692;DHT22;52411;52.716;6.696;2023-10-13T08:39:55;17.80;99.90
65692;DHT22;52411;52.716;6.696;2023-10-13T08:42:35;17.90;99.90
65692;DHT22;52411;52.716;6.696;2023-10-13T08:45:10;17.90;99.90
65692;DHT22;52411;52.716;6.696;2023-10-13T08:47:52;18.10;99.90
65692;DHT22;52411;52.716;6.696;2023-10-13T08:50:48;18.20;99.90
65692;DHT22;52411;52.716;6.696;2023-10-13T08:53:25;18.30;99.90
65692;DHT22;52411;52.716;6.696;2023-10-13T08:58:42;18.50;99.90
65692;DHT22;52411;52.716;6.696;2023-10-13T09:01:32;18.60;99.90
65692;DHT22;52411;52.716;6.696;2023-10-13T09:04:02;18.70;99.90
65692;DHT22;52411;52.716;6.696;2023-10-13T09:06:54;18.70;99.90
65692;DHT22;52411;52.716;6.696;2023-10-13T09:09:54;18.80;99.90
65692;DHT22;52411;52.716;6.696;2023-10-13T09:12:24;18.90;99.90
65692;DHT22;52411;52.716;6.696;2023-10-13T09:15:03;18.90;99.90
65692;DHT22;52411;52.716;6.696;2023-10-13T09:17:47;18.90;99.90
65692;DHT22;52411;52.716;6.696;2023-10-13T09:20:15;19.00;99.90
65692;DHT22;52411;52.716;6.696;2023-10-13T09:22:47;19.00;99.90
65692;DHT22;52411;52.716;6.696;2023-10-13T09:25:29;19.10;99.90
65692;DHT22;52411;52.716;6.696;2023-10-13T09:28:11;19.20;99.90
65692;DHT22;52411;52.716;6.696;2023-10-13T09:30:54;19.20;99.90
65692;DHT22;52411;52.716;6.696;2023-10-13T09:33:24;19.30;99.90
65692;DHT22;52411;52.716;6.696;2023-10-13T09:36:05;19.20;99.90
65692;DHT22;52411;52.716;6.696;2023-10-13T10:23:54;19.50;99.90
65692;DHT22;52411;52.716;6.696;2023-10-13T10:26:19;19.70;99.90
65692;DHT22;52411;52.716;6.696;2023-10-13T10:28:46;19.70;99.90
65692;DHT22;52411;52.716;6.696;2023-10-13T10:31:12;19.70;99.90
65692;DHT22;52411;52.716;6.696;2023-10-13T10:33:39;19.70;99.90
65692;DHT22;52411;52.716;6.696;2023-10-13T10:36:05;19.80;99.90
65692;DHT22;52411;52.716;6.696;2023-10-13T10:38:31;19.90;99.90
65692;DHT22;52411;52.716;6.696;2023-10-13T10:41:06;20.00;99.90
65692;DHT22;52411;52.716;6.696;2023-10-13T10:43:38;20.00;99.90
65692;DHT22;52411;52.716;6.696;2023-10-13T10:46:18;20.00;99.90
65692;DHT22;52411;52.716;6.696;2023-10-13T10:48:50;20.00;99.90
65692;DHT22;52411;52.716;6.696;2023-10-13T10:51:22;20.00;99.90
65692;DHT22;52411;52.716;6.696;2023-10-13T10:53:52;20.00;99.90
65692;DHT22;52411;52.716;6.696;2023-10-13T10:56:22;20.00;99.90
65692;DHT22;52411;52.716;6.696;2023-10-13T10:58:54;20.00;99.90
65692;DHT22;52411;52.716;6.696;2023-10-13T11:01:23;19.90;99.90
65692;DHT22;52411;52.716;6.696;2023-10-13T11:03:58;19.90;99.90
65692;DHT22;52411;52.716;6.696;2023-10-13T11:06:27;19.90;99.90
65692;DHT22;52411;52.716;6.696;2023-10-13T11:11:32;20.00;99.90
65692;DHT22;52411;52.716;6.696;2023-10-13T11:14:01;20.00;99.90
65692;DHT22;52411;52.716;6.696;2023-10-13T11:16:49;20.10;99.90
65692;DHT22;52411;52.716;6.696;2023-10-13T11:19:38;20.10;99.90
65692;DHT22;52411;52.716;6.696;2023-10-13T11:22:14;20.10;99.90
65692;DHT22;52411;52.716;6.696;2023-10-13T11:24:59;20.20;99.90
65692;DHT22;52411;52.716;6.696;2023-10-13T11:27:32;20.20;99.90
65692;DHT22;52411;52.716;6.696;2023-10-13T11:30:17;20.30;99.90
65692;DHT22;52411;52.716;6.696;2023-10-13T11:33:01;20.30;99.90
65692;DHT22;52411;52.716;6.696;2023-10-13T11:35:34;20.30;99.90
65692;DHT22;52411;52.716;6.696;2023-10-13T11:38:19;20.40;99.90
65692;DHT22;52411;52.716;6.696;2023-10-13T11:41:04;20.60;99.90
65692;DHT22;52411;52.716;6.696;2023-10-13T11:43:37;20.70;99.90
65692;DHT22;52411;52.716;6.696;2023-10-13T11:46:12;20.70;99.90
65692;DHT22;52411;52.716;6.696;2023-10-13T11:48:41;20.70;99.90
65692;DHT22;52411;52.716;6.696;2023-10-13T11:51:08;20.80;99.90
65692;DHT22;52411;52.716;6.696;2023-10-13T11:53:38;20.70;99.90
65692;DHT22;52411;52.716;6.696;2023-10-13T11:56:09;20.70;99.90
65692;DHT22;52411;52.716;6.696;2023-10-13T11:58:39;20.60;99.90
65692;DHT22;52411;52.716;6.696;2023-10-13T12:01:05;20.70;99.90
65692;DHT22;52411;52.716;6.696;2023-10-13T12:03:40;20.80;99.90
65692;DHT22;52411;52.716;6.696;2023-10-13T12:06:25;20.70;99.90
65692;DHT22;52411;52.716;6.696;2023-10-13T12:09:07;20.60;99.90
65692;DHT22;52411;52.716;6.696;2023-10-13T12:11:42;20.60;99.90
65692;DHT22;52411;52.716;6.696;2023-10-13T12:14:08;20.60;99.90
65692;DHT22;52411;52.716;6.696;2023-10-13T12:16:43;20.60;99.90
65692;DHT22;52411;52.716;6.696;2023-10-13T12:19:23;20.70;99.90
65692;DHT22;52411;52.716;6.696;2023-10-13T12:21:53;20.70;99.90
65692;DHT22;52411;52.716;6.696;2023-10-13T12:24:23;20.70;99.90
65692;DHT22;52411;52.716;6.696;2023-10-13T12:27:04;20.70;99.90
65692;DHT22;52411;52.716;6.696;2023-10-13T12:29:46;20.70;99.90
65692;DHT22;52411;52.716;6.696;2023-10-13T12:32:13;20.70;99.90
65692;DHT22;52411;52.716;6.696;2023-10-13T12:34:39;20.70;99.90
65692;DHT22;52411;52.716;6.696;2023-10-13T12:37:25;20.80;99.90
65692;DHT22;52411;52.716;6.696;2023-10-13T12:40:17;20.80;99.90
65692;DHT22;52411;52.716;6.696;2023-10-13T12:43:02;20.80;99.90
65692;DHT22;52411;52.716;6.696;2023-10-13T12:45:47;20.90;99.90
65692;DHT22;52411;52.716;6.696;2023-10-13T12:48:32;20.80;99.90
65692;DHT22;52411;52.716;6.696;2023-10-13T12:51:16;21.00;99.90
65692;DHT22;52411;52.716;6.696;2023-10-13T12:53:54;21.00;99.90
65692;DHT22;52411;52.716;6.696;2023-10-13T12:56:21;21.00;99.90
65692;DHT22;52411;52.716;6.696;2023-10-13T12:58:54;21.00;99.90
65692;DHT22;52411;52.716;6.696;2023-10-13T13:01:20;21.00;99.90
65692;DHT22;52411;52.716;6.696;2023-10-13T13:03:50;20.90;99.90
65692;DHT22;52411;52.716;6.696;2023-10-13T13:06:20;20.90;99.90
65692;DHT22;52411;52.716;6.696;2023-10-13T13:08:57;20.90;99.90
65692;DHT22;52411;52.716;6.696;2023-10-13T13:11:24;20.90;99.90
65692;DHT22;52411;52.716;6.696;2023-10-13T13:13:50;21.00;99.90
65692;DHT22;52411;52.716;6.696;2023-10-13T13:16:18;21.00;99.90
65692;DHT22;52411;52.716;6.696;2023-10-13T13:18:45;21.10;99.90
65692;DHT22;52411;52.716;6.696;2023-10-13T13:21:11;21.00;99.90
65692;DHT22;52411;52.716;6.696;2023-10-13T13:23:49;21.10;99.90
65692;DHT22;52411;52.716;6.696;2023-10-13T13:26:15;21.10;99.90
65692;DHT22;52411;52.716;6.696;2023-10-13T13:28:45;21.00;99.90
65692;DHT22;52411;52.716;6.696;2023-10-13T13:31:21;21.00;99.90
65692;DHT22;52411;52.716;6.696;2023-10-13T13:33:56;21.10;99.90
65692;DHT22;52411;52.716;6.696;2023-10-13T13:36:21;21.00;99.90
65692;DHT22;52411;52.716;6.696;2023-10-13T13:38:48;21.10;99.90
65692;DHT22;52411;52.716;6.696;2023-10-13T13:41:16;21.10;99.90
65692;DHT22;52411;52.716;6.696;2023-10-13T13:43:43;21.10;99.90
65692;DHT22;52411;52.716;6.696;2023-10-13T13:46:16;21.10;99.90
65692;DHT22;52411;52.716;6.696;2023-10-13T13:48:42;21.00;99.90
65692;DHT22;52411;52.716;6.696;2023-10-13T13:51:09;20.90;99.90
65692;DHT22;52411;52.716;6.696;2023-10-13T13:53:41;20.80;99.90
65692;DHT22;52411;52.716;6.696;2023-10-13T13:56:16;20.70;99.90
65692;DHT22;52411;52.716;6.696;2023-10-13T13:58:50;20.50;99.90
65692;DHT22;52411;52.716;6.696;2023-10-13T14:01:16;20.50;99.90
65692;DHT22;52411;52.716;6.696;2023-10-13T14:03:49;20.40;99.90
65692;DHT22;52411;52.716;6.696;2023-10-13T14:06:19;20.40;99.90
65692;DHT22;52411;52.716;6.696;2023-10-13T14:08:53;20.20;99.90
65692;DHT22;52411;52.716;6.696;2023-10-13T14:11:32;20.10;99.90
65692;DHT22;52411;52.716;6.696;2023-10-13T14:14:08;20.10;99.90
65692;DHT22;52411;52.716;6.696;2023-10-13T14:16:41;20.00;99.90
65692;DHT22;52411;52.716;6.696;2023-10-13T14:19:14;20.00;99.90
65692;DHT22;52411;52.716;6.696;2023-10-13T14:21:45;20.00;99.90
65692;DHT22;52411;52.716;6.696;2023-10-13T14:24:16;20.00;99.90
65692;DHT22;52411;52.716;6.696;2023-10-13T14:26:44;20.00;99.90
65692;DHT22;52411;52.716;6.696;2023-10-13T14:29:10;19.90;99.90
65692;DHT22;52411;52.716;6.696;2023-10-13T14:31:39;19.90;99.90
65692;DHT22;52411;52.716;6.696;2023-10-13T14:34:05;19.80;99.90
65692;DHT22;52411;52.716;6.696;2023-10-13T14:36:32;19.80;99.90
65692;DHT22;52411;52.716;6.696;2023-10-13T14:39:01;19.90;99.90
65692;DHT22;52411;52.716;6.696;2023-10-13T14:41:26;19.90;99.90
65692;DHT22;52411;52.716;6.696;2023-10-13T14:43:52;19.90;99.90
65692;DHT22;52411;52.716;6.696;2023-10-13T14:46:19;19.90;99.90
65692;DHT22;52411;52.716;6.696;2023-10-13T14:48:48;19.80;99.90
65692;DHT22;52411;52.716;6.696;2023-10-13T14:51:16;19.80;99.90
65692;DHT22;52411;52.716;6.696;2023-10-13T14:53:43;19.70;99.90
65692;DHT22;52411;52.716;6.696;2023-10-13T14:56:12;19.50;99.90
65692;DHT22;52411;52.716;6.696;2023-10-13T14:58:38;19.40;99.90
65692;DHT22;52411;52.716;6.696;2023-10-13T15:01:13;19.30;99.90
65692;DHT22;52411;52.716;6.696;2023-10-13T15:03:48;19.10;99.90
65692;DHT22;52411;52.716;6.696;2023-10-13T15:06:25;19.00;99.90
65692;DHT22;52411;52.716;6.696;2023-10-13T15:08:52;18.90;99.90
65692;DHT22;52411;52.716;6.696;2023-10-13T15:11:20;18.90;99.90
65692;DHT22;52411;52.716;6.696;2023-10-13T15:13:46;18.90;99.90
65692;DHT22;52411;52.716;6.696;2023-10-13T15:16:16;18.90;99.90
65692;DHT22;52411;52.716;6.696;2023-10-13T15:18:47;18.90;99.90
65692;DHT22;52411;52.716;6.696;2023-10-13T15:21:20;18.80;99.90
65692;DHT22;52411;52.716;6.696;2023-10-13T15:23:48;18.70;99.90
65692;DHT22;52411;52.716;6.696;2023-10-13T15:26:14;18.70;99.90
65692;DHT22;52411;52.716;6.696;2023-10-13T15:28:41;18.70;99.90
65692;DHT22;52411;52.716;6.696;2023-10-13T15:31:18;18.70;99.90
65692;DHT22;52411;52.716;6.696;2023-10-13T15:34:00;18.70;99.90
65692;DHT22;52411;52.716;6.696;2023-10-13T15:36:26;18.60;99.90
65692;DHT22;52411;52.716;6.696;2023-10-13T15:38:53;18.60;99.90
65692;DHT22;52411;52.716;6.696;2023-10-13T15:41:26;18.60;99.90
65692;DHT22;52411;52.716;6.696;2023-10-13T15:43:53;18.60;99.90
65692;DHT22;52411;52.716;6.696;2023-10-13T15:46:21;18.60;99.90
65692;DHT22;52411;52.716;6.696;2023-10-13T15:48:48;18.50;99.90
65692;DHT22;52411;52.716;6.696;2023-10-13T15:51:13;18.60;99.90
65692;DHT22;52411;52.716;6.696;2023-10-13T15:53:40;18.50;99.90
65692;DHT22;52411;52.716;6.696;2023-10-13T15:56:06;18.60;99.90
65692;DHT22;52411;52.716;6.696;2023-10-13T15:58:46;18.50;99.90
65692;DHT22;52411;52.716;6.696;2023-10-13T16:01:13;18.60;99.90
65692;DHT22;52411;52.716;6.696;2023-10-13T16:03:45;18.50;99.90
65692;DHT22;52411;52.716;6.696;2023-10-13T16:06:17;18.50;99.90
65692;DHT22;52411;52.716;6.696;2023-10-13T16:08:42;18.50;99.90
65692;DHT22;52411;52.716;6.696;2023-10-13T16:11:12;18.50;99.90
65692;DHT22;52411;52.716;6.696;2023-10-13T16:13:45;18.40;99.90
65692;DHT22;52411;52.716;6.696;2023-10-13T16:16:15;18.40;99.90
65692;DHT22;52411;52.716;6.696;2023-10-13T16:18:42;18.30;99.90
65692;DHT22;52411;52.716;6.696;2023-10-13T16:21:09;18.30;99.90
65692;DHT22;52411;52.716;6.696;2023-10-13T16:23:38;18.30;99.90
65692;DHT22;52411;52.716;6.696;2023-10-13T16:26:05;18.30;99.90
65692;DHT22;52411;52.716;6.696;2023-10-13T16:28:36;18.30;99.90
65692;DHT22;52411;52.716;6.696;2023-10-13T16:31:04;18.30;99.90
65692;DHT22;52411;52.716;6.696;2023-10-13T16:33:31;18.30;99.90
65692;DHT22;52411;52.716;6.696;2023-10-13T16:35:58;18.30;99.90
65692;DHT22;52411;52.716;6.696;2023-10-13T16:38:24;18.30;99.90
65692;DHT22;52411;52.716;6.696;2023-10-13T16:40:53;18.40;99.90
65692;DHT22;52411;52.716;6.696;2023-10-13T16:43:22;18.30;99.90
65692;DHT22;52411;52.716;6.696;2023-10-13T16:45:48;18.30;99.90
65692;DHT22;52411;52.716;6.696;2023-10-13T16:48:14;18.30;99.90
65692;DHT22;52411;52.716;6.696;2023-10-13T16:50:43;18.40;99.90
65692;DHT22;52411;52.716;6.696;2023-10-13T16:53:10;18.30;99.90
65692;DHT22;52411;52.716;6.696;2023-10-13T16:55:36;18.40;99.90
65692;DHT22;52411;52.716;6.696;2023-10-13T16:58:03;18.30;99.90
65692;DHT22;52411;52.716;6.696;2023-10-13T17:00:29;18.30;99.90
65692;DHT22;52411;52.716;6.696;2023-10-13T17:02:55;18.30;99.90
65692;DHT22;52411;52.716;6.696;2023-10-13T17:05:21;18.30;99.90